Time;durP1;ratioP1;P1;durP2;ratioP2;P2;SDS_P1;SDS_P2;PMS_P1;PMS_P2;Temp;Humidity;BMP_temperature;BMP_pressure;BME280_temperature;BME280_humidity;BME280_pressure;Samples;Min_cycle;Max_cycle;Signal;HPM_P1;HPM_P2
2021/03/20 00:01:12;;;;;;;6.32;2.05;;;2.20;99.90;;;;;;5055829;28;20029;-74
2021/03/20 00:03:37;;;;;;;3.65;2.15;;;2.20;99.90;;;;;;5037699;28;20025;-74
2021/03/20 00:06:04;;;;;;;5.57;2.08;;;2.10;99.90;;;;;;5055860;28;20021;-74
2021/03/20 00:08:30;;;;;;;5.50;2.00;;;2.10;99.90;;;;;;5055745;28;20116;-74
2021/03/20 00:10:56;;;;;;;3.83;2.13;;;2.10;99.90;;;;;;5055730;28;20094;-74
2021/03/20 00:13:23;;;;;;;8.25;2.00;;;2.00;99.90;;;;;;5055709;28;20025;-74
2021/03/20 00:15:51;;;;;;;4.57;1.80;;;2.00;99.90;;;;;;5055754;28;20025;-74
2021/03/20 00:18:16;;;;;;;4.68;2.50;;;2.00;99.90;;;;;;5055987;28;20029;-74
2021/03/20 00:20:42;;;;;;;3.38;1.85;;;2.00;99.90;;;;;;5056209;28;20033;-74
2021/03/20 00:23:09;;;;;;;5.35;2.35;;;1.90;99.90;;;;;;5056254;28;20025;-74
2021/03/20 00:25:35;;;;;;;4.65;2.47;;;1.80;99.90;;;;;;5054926;28;20389;-74
2021/03/20 00:28:03;;;;;;;5.85;1.77;;;1.90;99.90;;;;;;5055609;28;20104;-75
2021/03/20 00:30:29;;;;;;;3.47;2.13;;;1.80;99.90;;;;;;5056157;28;20028;-75
2021/03/20 00:32:54;;;;;;;4.25;2.17;;;1.80;99.90;;;;;;5037377;28;20032;-75
2021/03/20 00:35:22;;;;;;;3.15;1.90;;;1.80;99.90;;;;;;5037665;28;20428;-74
2021/03/20 00:37:49;;;;;;;5.23;2.00;;;1.80;99.90;;;;;;5037307;28;20057;-74
2021/03/20 00:40:19;;;;;;;3.38;2.22;;;1.70;99.90;;;;;;5055485;28;20271;-74
2021/03/20 00:42:45;;;;;;;3.20;1.85;;;1.70;99.90;;;;;;5055091;28;20501;-74
2021/03/20 00:45:12;;;;;;;5.22;2.00;;;1.70;99.90;;;;;;5038309;28;20025;-74
2021/03/20 00:47:38;;;;;;;5.20;1.85;;;1.80;99.90;;;;;;5055203;28;20028;-74
2021/03/20 00:50:06;;;;;;;8.48;2.00;;;1.80;99.90;;;;;;5037902;28;20017;-74
2021/03/20 00:52:32;;;;;;;3.63;2.00;;;1.70;99.90;;;;;;5037229;28;20108;-74
2021/03/20 00:54:59;;;;;;;3.75;1.95;;;1.80;99.90;;;;;;5068837;23;20452;-76
2021/03/20 00:57:26;;;;;;;4.30;2.28;;;1.70;99.90;;;;;;5049017;22;20048;-74
2021/03/20 00:59:51;;;;;;;4.57;2.47;;;1.80;99.90;;;;;;5035723;28;20036;-74
2021/03/20 01:02:17;;;;;;;4.70;2.33;;;1.70;99.90;;;;;;5035458;28;20073;-76
2021/03/20 01:04:42;;;;;;;5.65;2.03;;;1.70;99.90;;;;;;5017511;28;20033;-76
2021/03/20 01:07:08;;;;;;;6.60;2.20;;;1.70;99.90;;;;;;5017039;28;20026;-75
2021/03/20 01:09:34;;;;;;;11.48;2.83;;;1.70;99.90;;;;;;5035765;28;20028;-75
2021/03/20 01:12:00;;;;;;;5.53;2.28;;;1.60;99.90;;;;;;5035378;28;20474;-75
2021/03/20 01:14:27;;;;;;;4.05;2.20;;;1.60;99.90;;;;;;5034953;28;20035;-76
2021/03/20 01:16:53;;;;;;;5.72;2.50;;;1.50;99.90;;;;;;5016302;28;20033;-76
2021/03/20 01:19:19;;;;;;;4.53;2.20;;;1.50;99.90;;;;;;5034400;28;20494;-76
2021/03/20 01:21:44;;;;;;;9.70;3.22;;;1.50;99.90;;;;;;5016944;28;20036;-76
2021/03/20 01:24:10;;;;;;;6.45;2.42;;;1.50;99.90;;;;;;5016850;28;20022;-76
2021/03/20 01:26:36;;;;;;;4.60;2.47;;;1.40;99.90;;;;;;5034996;28;20025;-76
2021/03/20 01:29:02;;;;;;;6.35;2.08;;;1.40;99.90;;;;;;5034786;28;20017;-76
2021/03/20 01:31:28;;;;;;;4.00;2.20;;;1.30;99.90;;;;;;5016719;28;20483;-76
2021/03/20 01:33:53;;;;;;;4.70;1.90;;;1.30;99.90;;;;;;5035021;28;20032;-76
2021/03/20 01:36:19;;;;;;;7.15;2.47;;;1.30;99.90;;;;;;5034131;28;20061;-76
2021/03/20 01:38:44;;;;;;;10.65;2.53;;;1.30;99.90;;;;;;5034318;28;20053;-76
2021/03/20 01:41:19;;;;;;;3.20;2.03;;;3.20;99.90;;;;;;5034855;28;20071;-76
2021/03/20 01:43:45;;;;;;;4.03;2.35;;;1.30;99.90;;;;;;5035353;28;20035;-74
2021/03/20 01:46:30;;;;;;;3.78;2.00;;;1.30;99.90;;;;;;5019331;28;20092;-73
2021/03/20 01:48:55;;;;;;;9.60;2.40;;;1.30;99.90;;;;;;5068931;23;20391;-73
2021/03/20 01:51:21;;;;;;;4.22;2.10;;;1.30;99.90;;;;;;5034709;28;20082;-73
2021/03/20 01:53:54;;;;;;;3.67;2.15;;;1.20;99.90;;;;;;5034422;28;20470;-74
2021/03/20 01:56:23;;;;;;;5.28;2.30;;;1.10;99.90;;;;;;5034160;28;20029;-76
2021/03/20 01:58:50;;;;;;;5.85;2.20;;;1.10;99.90;;;;;;5034487;28;20475;-76
2021/03/20 02:01:29;;;;;;;7.47;2.45;;;1.10;99.90;;;;;;5032668;28;20017;-76
2021/03/20 02:03:57;;;;;;;4.78;1.98;;;1.00;99.90;;;;;;5034235;28;20383;-76
2021/03/20 02:06:23;;;;;;;4.07;2.33;;;0.90;99.90;;;;;;5033928;28;20079;-76
2021/03/20 02:08:51;;;;;;;4.53;2.30;;;0.90;99.90;;;;;;5034836;28;20479;-76
2021/03/20 02:11:34;;;;;;;3.60;1.83;;;0.90;99.90;;;;;;5033905;28;20163;-76
2021/03/20 02:14:28;;;;;;;6.05;2.10;;;0.90;99.90;;;;;;5033484;28;20513;-76
2021/03/20 02:17:34;;;;;;;5.07;2.53;;;0.90;99.90;;;;;;5032899;28;20033;-76
2021/03/20 02:20:29;;;;;;;3.70;2.13;;;0.80;99.90;;;;;;5026202;28;20099;-76
2021/03/20 02:23:07;;;;;;;7.82;2.47;;;0.80;99.90;;;;;;5033155;28;20034;-76
2021/03/20 02:25:45;;;;;;;7.75;2.58;;;0.80;99.90;;;;;;5036116;28;20029;-76
2021/03/20 02:28:36;;;;;;;4.55;2.42;;;0.80;99.90;;;;;;5038486;28;20467;-76
2021/03/20 02:31:11;;;;;;;5.32;2.47;;;0.70;99.90;;;;;;5052020;22;20037;-75
2021/03/20 02:33:47;;;;;;;6.03;2.63;;;0.70;99.90;;;;;;5058257;28;20119;-75
2021/03/20 02:36:13;;;;;;;6.07;2.67;;;0.70;99.90;;;;;;5058784;28;20025;-76
2021/03/20 02:38:50;;;;;;;7.68;2.50;;;0.70;99.90;;;;;;5078693;28;20104;-75
2021/03/20 02:41:27;;;;;;;5.63;1.83;;;0.70;99.90;;;;;;5082693;23;20049;-76
2021/03/20 02:43:56;;;;;;;5.75;2.58;;;0.70;99.90;;;;;;5019683;28;20177;-75
2021/03/20 02:46:26;;;;;;;3.75;2.38;;;0.60;99.90;;;;;;5022635;28;20057;-74
2021/03/20 02:49:20;;;;;;;7.38;2.70;;;0.60;99.90;;;;;;5021740;28;20468;-75
2021/03/20 02:51:52;;;;;;;7.95;2.63;;;0.50;99.90;;;;;;5038417;28;20104;-74
2021/03/20 02:54:45;;;;;;;5.43;1.90;;;0.50;99.90;;;;;;5022179;28;20037;-73
2021/03/20 02:57:17;;;;;;;6.38;2.35;;;0.50;99.90;;;;;;5022197;28;20025;-74
2021/03/20 02:59:50;;;;;;;5.32;2.45;;;0.40;99.90;;;;;;5019969;28;20031;-76
2021/03/20 03:02:18;;;;;;;5.35;2.70;;;0.40;99.90;;;;;;5037042;28;20444;-76
2021/03/20 03:04:50;;;;;;;4.53;1.97;;;0.30;99.90;;;;;;5037152;28;20037;-77
2021/03/20 03:07:28;;;;;;;6.45;2.45;;;0.30;99.90;;;;;;5037088;28;20260;-77
2021/03/20 03:10:06;;;;;;;7.35;1.83;;;0.30;99.90;;;;;;5019569;28;20017;-77
2021/03/20 03:12:41;;;;;;;11.23;2.95;;;0.30;99.90;;;;;;5019270;28;20075;-77
2021/03/20 03:15:15;;;;;;;4.38;2.63;;;0.20;99.90;;;;;;5036998;28;20033;-77
2021/03/20 03:17:48;;;;;;;5.03;2.75;;;0.20;99.90;;;;;;5018599;28;20047;-76
2021/03/20 03:20:25;;;;;;;5.57;2.63;;;0.10;99.90;;;;;;5017629;28;20038;-75
2021/03/20 03:22:55;;;;;;;5.45;2.30;;;0.10;99.90;;;;;;5017744;28;20026;-75
2021/03/20 03:25:24;;;;;;;8.15;3.10;;;0.10;99.90;;;;;;4999055;28;20476;-75
2021/03/20 03:27:53;;;;;;;5.38;2.00;;;0.10;99.90;;;;;;5016736;28;20029;-75
2021/03/20 03:30:22;;;;;;;5.95;2.72;;;0.10;99.90;;;;;;4999257;28;20025;-75
2021/03/20 03:32:58;;;;;;;6.80;2.70;;;0.10;99.90;;;;;;4999418;28;20029;-75
2021/03/20 03:35:33;;;;;;;7.70;2.70;;;0.10;99.90;;;;;;5017446;28;20026;-75
2021/03/20 03:41:01;;;;;;;4.03;2.28;;;0.10;99.90;;;;;;5034023;28;20076;-74
2021/03/20 03:43:27;;;;;;;5.35;2.47;;;0.10;99.90;;;;;;5037823;28;20025;-75
2021/03/20 03:45:53;;;;;;;6.75;2.78;;;0.00;99.90;;;;;;5035591;28;20020;-75
2021/03/20 03:48:20;;;;;;;6.75;1.88;;;0.00;99.90;;;;;;5036198;28;20025;-75
2021/03/20 03:50:48;;;;;;;5.38;2.53;;;0.00;99.90;;;;;;5089304;23;20132;-75
2021/03/20 03:53:18;;;;;;;5.43;2.60;;;-0.10;99.90;;;;;;5018989;28;20375;-76
2021/03/20 03:55:44;;;;;;;4.60;2.35;;;-0.10;99.90;;;;;;5036874;28;20534;-77
2021/03/20 03:58:24;;;;;;;5.32;2.30;;;-0.10;99.90;;;;;;5062096;23;20045;-74
2021/03/20 04:00:55;;;;;;;4.30;1.98;;;0.00;99.90;;;;;;5055318;28;20041;-76
2021/03/20 04:03:30;;;;;;;6.45;2.85;;;-0.10;99.90;;;;;;5056723;28;20021;-75
2021/03/20 04:06:29;;;;;;;6.05;2.53;;;-0.10;99.90;;;;;;5056410;28;20459;-75
2021/03/20 04:09:19;;;;;;;5.70;2.95;;;-0.20;99.90;;;;;;5035950;28;20033;-76
2021/03/20 04:12:03;;;;;;;6.00;2.67;;;-0.20;99.90;;;;;;5037670;28;20024;-74
2021/03/20 04:14:39;;;;;;;6.03;2.78;;;-0.20;99.90;;;;;;5035097;28;20030;-76
2021/03/20 04:17:19;;;;;;;4.57;2.08;;;-0.30;99.90;;;;;;5036604;28;20028;-74
2021/03/20 04:19:50;;;;;;;6.43;2.95;;;-0.30;99.90;;;;;;5037828;28;20025;-76
2021/03/20 04:22:43;;;;;;;6.00;2.55;;;-0.30;99.90;;;;;;5036447;28;20049;-76
2021/03/20 04:25:40;;;;;;;7.05;2.10;;;-0.30;99.90;;;;;;5036868;28;20032;-74
2021/03/20 04:28:29;;;;;;;6.45;2.47;;;-0.40;99.90;;;;;;5039019;28;20036;-76
2021/03/20 04:31:24;;;;;;;7.57;2.83;;;-0.40;99.90;;;;;;5037658;28;20156;-74
2021/03/20 04:34:18;;;;;;;9.20;2.63;;;-0.40;99.90;;;;;;5036501;28;20040;-76
2021/03/20 04:36:55;;;;;;;4.40;2.30;;;-0.40;99.90;;;;;;5035168;28;20116;-74
2021/03/20 04:39:24;;;;;;;7.28;2.40;;;-0.40;99.90;;;;;;5036453;28;20501;-76
2021/03/20 04:41:51;;;;;;;4.82;2.30;;;-0.40;99.90;;;;;;5037410;28;20032;-75
2021/03/20 04:44:18;;;;;;;5.85;2.15;;;-0.40;99.90;;;;;;5035616;28;20021;-76
2021/03/20 04:46:45;;;;;;;5.60;2.50;;;-0.40;99.90;;;;;;5036239;28;20061;-74
2021/03/20 04:49:35;;;;;;;5.50;2.28;;;-0.40;99.90;;;;;;5038428;28;20025;-74
2021/03/20 04:52:10;;;;;;;7.25;2.60;;;-0.50;99.90;;;;;;5036980;28;20025;-74
2021/03/20 04:54:36;;;;;;;5.07;2.60;;;-0.50;99.90;;;;;;5036038;28;20482;-74
2021/03/20 04:57:14;;;;;;;4.53;2.20;;;-0.60;99.90;;;;;;5035099;28;20076;-75
2021/03/20 04:59:57;;;;;;;3.78;2.00;;;-0.60;99.90;;;;;;5036058;28;20103;-75
2021/03/20 05:02:30;;;;;;;3.85;2.15;;;-0.70;99.90;;;;;;5035032;28;20080;-75
2021/03/20 05:05:04;;;;;;;8.32;2.58;;;-0.70;99.90;;;;;;5037233;28;20479;-76
2021/03/20 05:07:31;;;;;;;6.65;3.33;;;-0.60;99.90;;;;;;5050310;23;20616;-76
2021/03/20 05:09:58;;;;;;;5.55;2.00;;;-0.60;99.90;;;;;;5035919;28;20018;-73
2021/03/20 05:12:28;;;;;;;4.90;2.30;;;-0.60;99.90;;;;;;5037773;28;20021;-75
2021/03/20 05:14:58;;;;;;;6.50;2.75;;;-0.60;99.90;;;;;;5037651;28;20079;-75
2021/03/20 05:17:24;;;;;;;5.60;2.00;;;-0.50;99.90;;;;;;5034980;28;20553;-75
2021/03/20 05:19:50;;;;;;;8.60;2.50;;;-0.50;99.90;;;;;;5035435;28;20075;-75
2021/03/20 05:22:28;;;;;;;9.10;3.75;;;-0.40;99.90;;;;;;5035272;28;20030;-75
2021/03/20 05:24:55;;;;;;;8.85;2.80;;;-0.30;99.90;;;;;;5034587;28;20037;-75
2021/03/20 05:27:30;;;;;;;6.38;2.58;;;-0.30;99.90;;;;;;5034332;28;20089;-75
2021/03/20 05:29:55;;;;;;;6.43;2.53;;;-0.30;99.90;;;;;;5035569;28;20022;-75
2021/03/20 05:32:30;;;;;;;8.18;2.90;;;-0.30;99.90;;;;;;5035383;28;20024;-75
2021/03/20 05:34:58;;;;;;;7.07;2.95;;;-0.20;99.90;;;;;;5035742;28;20030;-75
2021/03/20 05:37:37;;;;;;;5.85;2.40;;;-0.20;99.90;;;;;;5033486;28;20386;-75
2021/03/20 05:40:13;;;;;;;6.40;3.03;;;-0.10;99.90;;;;;;5033162;28;20022;-75
2021/03/20 05:42:54;;;;;;;6.47;2.80;;;-0.10;99.90;;;;;;5035378;28;20057;-75
2021/03/20 05:45:25;;;;;;;6.38;2.70;;;-0.10;99.90;;;;;;5033644;28;20029;-75
2021/03/20 05:48:13;;;;;;;6.18;2.53;;;-0.10;99.90;;;;;;5034485;28;20028;-74
2021/03/20 05:51:10;;;;;;;4.50;3.00;;;-0.10;99.90;;;;;;5046747;23;20428;-75
2021/03/20 05:53:54;;;;;;;4.07;2.42;;;0.00;99.90;;;;;;5059607;23;20040;-76
2021/03/20 05:56:24;;;;;;;6.80;2.67;;;0.00;99.90;;;;;;5052960;28;20044;-76
2021/03/20 05:59:14;;;;;;;8.80;2.65;;;0.10;99.90;;;;;;5053505;28;20025;-74
2021/03/20 06:01:57;;;;;;;5.80;3.10;;;0.00;99.90;;;;;;5057193;28;20029;-75
2021/03/20 06:04:34;;;;;;;7.43;3.13;;;0.10;99.90;;;;;;5059326;28;20059;-75
2021/03/20 06:07:14;;;;;;;6.43;2.58;;;0.10;99.90;;;;;;5056742;23;20041;-76
2021/03/20 06:09:54;;;;;;;6.43;2.97;;;0.20;99.90;;;;;;5039834;28;20052;-76
2021/03/20 06:12:51;;;;;;;7.25;3.17;;;0.20;99.90;;;;;;5060092;23;20100;-74
2021/03/20 06:15:42;;;;;;;5.88;3.22;;;0.30;99.90;;;;;;5057137;28;20036;-75
2021/03/20 06:18:15;;;;;;;5.50;3.22;;;0.50;99.90;;;;;;5058196;28;20121;-75
2021/03/20 06:21:02;;;;;;;3.83;2.15;;;0.60;99.90;;;;;;5057964;28;20082;-75
2021/03/20 06:23:47;;;;;;;5.13;3.00;;;0.70;99.90;;;;;;5058289;28;20052;-75
2021/03/20 06:26:15;;;;;;;7.75;2.95;;;0.80;99.90;;;;;;5058143;28;20021;-75
2021/03/20 06:28:44;;;;;;;6.85;2.97;;;1.00;99.90;;;;;;5058076;28;20056;-75
2021/03/20 06:31:20;;;;;;;7.47;3.15;;;1.10;99.90;;;;;;5057859;28;20028;-75
2021/03/20 06:33:48;;;;;;;7.53;3.05;;;1.20;99.90;;;;;;5057862;28;20493;-75
2021/03/20 06:36:18;;;;;;;7.53;3.00;;;1.20;99.90;;;;;;5057919;28;20438;-75
2021/03/20 06:38:56;;;;;;;6.20;3.25;;;1.30;99.90;;;;;;5057015;28;20033;-75
2021/03/20 06:41:33;;;;;;;7.13;2.92;;;1.30;99.90;;;;;;5062095;28;20025;-74
2021/03/20 06:44:09;;;;;;;6.25;3.05;;;1.40;99.90;;;;;;5060985;28;20021;-76
2021/03/20 06:46:37;;;;;;;7.22;3.10;;;1.40;99.90;;;;;;5058592;28;20020;-76
2021/03/20 06:49:32;;;;;;;6.03;2.90;;;1.50;99.90;;;;;;5058178;28;20025;-76
2021/03/20 06:52:01;;;;;;;5.95;3.05;;;1.50;99.90;;;;;;5058303;28;20303;-75
2021/03/20 06:54:27;;;;;;;7.53;2.65;;;1.60;99.90;;;;;;5056525;28;20053;-77
2021/03/20 06:56:53;;;;;;;6.95;3.05;;;1.80;99.90;;;;;;5059127;28;20100;-75
2021/03/20 06:59:22;;;;;;;8.23;3.75;;;1.80;99.90;;;;;;5060789;28;20068;-76
2021/03/20 07:01:54;;;;;;;8.80;2.67;;;1.90;99.90;;;;;;5057448;28;20025;-78
2021/03/20 07:04:54;;;;;;;4.82;2.63;;;2.00;99.90;;;;;;5056850;28;20033;-77
2021/03/20 07:07:37;;;;;;;7.35;3.80;;;2.10;99.90;;;;;;5057726;28;20043;-77
2021/03/20 07:10:20;;;;;;;5.85;2.47;;;2.10;99.90;;;;;;5058323;28;20021;-78
2021/03/20 07:13:06;;;;;;;5.20;2.67;;;2.20;99.90;;;;;;5058046;28;20029;-77
2021/03/20 07:15:32;;;;;;;5.57;2.92;;;2.20;99.90;;;;;;5056535;28;20040;-77
2021/03/20 07:18:35;;;;;;;8.10;2.78;;;2.30;99.90;;;;;;5057500;28;20021;-77
2021/03/20 07:21:03;;;;;;;4.65;1.98;;;2.30;99.90;;;;;;5057320;28;20045;-77
2021/03/20 07:23:29;;;;;;;6.07;3.00;;;2.40;99.90;;;;;;5058346;28;20029;-78
2021/03/20 07:26:09;;;;;;;4.63;2.33;;;2.40;99.90;;;;;;5057145;28;20121;-74
2021/03/20 07:28:36;;;;;;;5.03;2.38;;;2.50;99.90;;;;;;5056685;28;20431;-76
2021/03/20 07:31:11;;;;;;;7.75;2.47;;;2.50;99.90;;;;;;5057215;28;20470;-76
2021/03/20 07:33:38;;;;;;;7.05;2.65;;;2.60;99.90;;;;;;5058358;28;20532;-77
2021/03/20 07:36:28;;;;;;;6.35;2.28;;;2.70;99.90;;;;;;5057977;28;20025;-77
2021/03/20 07:39:26;;;;;;;6.90;2.60;;;2.80;99.90;;;;;;5058050;28;20033;-76
2021/03/20 07:41:58;;;;;;;7.28;3.33;;;2.80;99.90;;;;;;5057811;28;20048;-77
2021/03/20 07:44:26;;;;;;;5.28;2.55;;;2.90;99.90;;;;;;5056973;28;20029;-77
2021/03/20 07:46:53;;;;;;;5.43;2.30;;;3.80;99.90;;;;;;5056870;28;20021;-77
2021/03/20 07:49:18;;;;;;;6.30;2.97;;;3.00;99.90;;;;;;5058126;28;20317;-77
2021/03/20 07:51:50;;;;;;;4.97;1.95;;;3.10;99.90;;;;;;5057029;28;20021;-77
2021/03/20 07:54:22;;;;;;;4.38;2.08;;;3.20;99.90;;;;;;5058083;28;20036;-76
2021/03/20 07:56:48;;;;;;;3.60;2.13;;;3.30;99.90;;;;;;5057040;28;20021;-76
2021/03/20 07:59:22;;;;;;;5.80;3.08;;;3.30;99.90;;;;;;5058111;28;20486;-75
2021/03/20 08:01:52;;;;;;;3.67;2.10;;;3.40;99.90;;;;;;5056749;28;20037;-77
2021/03/20 08:04:17;;;;;;;2.95;1.90;;;3.60;99.90;;;;;;5056887;28;20032;-77
2021/03/20 08:06:49;;;;;;;4.65;1.80;;;3.80;99.90;;;;;;5054833;28;20159;-77
2021/03/20 08:09:17;;;;;;;4.00;2.15;;;3.90;99.90;;;;;;5072875;28;20067;-76
2021/03/20 08:11:45;;;;;;;3.85;2.17;;;4.10;99.90;;;;;;5071599;28;20025;-74
2021/03/20 08:14:40;;;;;;;5.00;1.92;;;4.10;99.90;;;;;;5057094;28;20033;-75
2021/03/20 08:17:11;;;;;;;4.47;1.88;;;4.20;99.90;;;;;;5057320;28;20029;-74
2021/03/20 08:19:37;;;;;;;4.60;1.60;;;4.40;99.90;;;;;;5059589;22;20406;-76
2021/03/20 08:22:31;;;;;;;4.45;1.98;;;4.50;99.90;;;;;;5036952;28;20021;-75
2021/03/20 08:25:12;;;;;;;3.50;1.70;;;4.50;99.90;;;;;;5016793;28;20030;-73
2021/03/20 08:27:50;;;;;;;7.80;1.95;;;4.60;99.90;;;;;;5043568;23;20141;-75
2021/03/20 08:30:52;;;;;;;3.05;1.58;;;4.30;99.90;;;;;;5033193;28;20022;-75
2021/03/20 08:33:30;;;;;;;4.72;2.85;;;4.70;99.90;;;;;;5016864;28;20174;-74
2021/03/20 08:36:33;;;;;;;4.57;2.20;;;4.70;99.90;;;;;;5032049;28;20387;-76
2021/03/20 08:39:38;;;;;;;4.18;2.47;;;4.70;99.90;;;;;;5016944;28;20034;-75
2021/03/20 08:42:16;;;;;;;5.57;2.78;;;4.80;99.90;;;;;;5015755;28;20025;-74
2021/03/20 08:44:51;;;;;;;4.70;2.78;;;4.90;99.90;;;;;;5014984;28;20033;-76
2021/03/20 08:48:03;;;;;;;4.95;2.90;;;5.00;99.90;;;;;;5017055;28;20022;-76
2021/03/20 08:50:55;;;;;;;5.15;3.00;;;4.90;99.90;;;;;;5016248;28;20030;-75
2021/03/20 08:53:50;;;;;;;9.15;3.65;;;4.90;99.30;;;;;;5015790;28;20026;-76
2021/03/20 08:56:44;;;;;;;8.75;3.15;;;4.80;99.90;;;;;;5016363;28;20530;-76
2021/03/20 08:59:16;;;;;;;7.22;3.30;;;4.90;99.90;;;;;;5015560;28;20431;-76
2021/03/20 09:01:53;;;;;;;6.63;3.40;;;5.00;99.90;;;;;;5042321;23;20080;-76
2021/03/20 09:04:34;;;;;;;7.90;3.40;;;5.20;99.90;;;;;;5037159;28;20030;-76
2021/03/20 09:07:28;;;;;;;9.50;3.10;;;5.40;96.40;;;;;;5074122;22;20511;-77
2021/03/20 09:09:59;;;;;;;5.40;2.75;;;5.50;93.80;;;;;;5034287;28;20045;-76
2021/03/20 09:12:29;;;;;;;4.03;1.30;;;5.70;91.60;;;;;;5071808;23;20030;-76
2021/03/20 09:14:59;;;;;;;5.80;2.60;;;5.80;84.40;;;;;;5037773;28;20021;-77
2021/03/20 09:17:42;;;;;;;4.50;2.55;;;5.80;83.30;;;;;;5035609;28;20029;-76
2021/03/20 09:20:24;;;;;;;5.00;2.15;;;5.90;83.90;;;;;;5035636;28;20017;-75
2021/03/20 09:22:51;;;;;;;3.50;1.67;;;6.10;87.00;;;;;;5017767;28;20115;-74
2021/03/20 09:25:36;;;;;;;3.15;1.50;;;6.30;82.00;;;;;;5049651;23;20041;-74
2021/03/20 09:28:29;;;;;;;4.65;1.70;;;6.30;76.00;;;;;;5034767;28;20105;-73
2021/03/20 09:31:19;;;;;;;8.27;1.77;;;6.40;75.40;;;;;;5118763;23;20053;-76
2021/03/20 09:33:44;;;;;;;2.85;0.95;;;6.40;73.70;;;;;;5035223;28;20033;-75
2021/03/20 09:36:22;;;;;;;1.42;0.70;;;6.60;72.70;;;;;;5035525;28;20082;-75
2021/03/20 09:38:51;;;;;;;3.38;1.48;;;6.30;71.30;;;;;;4997831;28;20466;-76
2021/03/20 09:41:17;;;;;;;2.42;0.63;;;6.40;72.60;;;;;;5015103;28;20037;-78
2021/03/20 09:43:50;;;;;;;3.05;0.90;;;7.10;72.10;;;;;;5017482;28;20034;-79
2021/03/20 09:48:47;;;;;;;2.83;0.75;;;6.70;66.00;;;;;;5016528;28;20053;-78
2021/03/20 09:51:59;;;;;;;3.33;0.98;;;6.70;67.20;;;;;;5014661;28;20022;-77
2021/03/20 09:54:29;;;;;;;2.33;0.30;;;6.90;66.10;;;;;;5013559;28;20022;-78
2021/03/20 09:59:43;;;;;;;1.55;0.38;;;7.30;59.00;;;;;;5014837;28;20029;-77
2021/03/20 10:02:15;;;;;;;1.70;0.63;;;7.40;62.60;;;;;;5015207;28;20022;-76
2021/03/20 10:05:03;;;;;;;2.88;0.57;;;7.40;61.90;;;;;;5014624;28;20042;-78
2021/03/20 10:07:34;;;;;;;1.30;0.55;;;7.50;63.10;;;;;;5081947;23;20433;-79
2021/03/20 10:10:11;;;;;;;0.80;0.40;;;7.40;61.20;;;;;;5054483;28;20013;-77
2021/03/20 10:12:42;;;;;;;1.98;0.90;;;7.20;61.20;;;;;;5036485;28;20033;-79
2021/03/20 10:15:19;;;;;;;1.95;0.50;;;7.10;62.90;;;;;;5035164;28;20029;-77
2021/03/20 10:17:58;;;;;;;2.13;0.50;;;7.30;62.10;;;;;;5038893;28;20040;-80
2021/03/20 10:20:56;;;;;;;4.78;0.63;;;7.20;62.10;;;;;;5040199;28;20029;-82
2021/03/20 10:23:42;;;;;;;1.27;0.50;;;7.40;61.50;;;;;;5053376;28;20108;-80
2021/03/20 10:26:44;;;;;;;1.63;0.80;;;7.60;60.00;;;;;;5059003;28;20421;-79
2021/03/20 10:29:18;;;;;;;2.13;0.50;;;7.80;62.50;;;;;;5059847;28;20017;-79
2021/03/20 10:31:54;;;;;;;5.20;1.02;;;7.80;60.20;;;;;;5060138;28;20482;-81
2021/03/20 10:34:25;;;;;;;1.75;0.50;;;7.90;58.50;;;;;;5061003;28;20049;-80
2021/03/20 10:37:06;;;;;;;1.13;0.20;;;8.00;60.00;;;;;;5057615;28;20025;-78
2021/03/20 10:39:41;;;;;;;0.60;0.10;;;8.20;59.70;;;;;;5055860;23;20037;-78
2021/03/20 10:42:42;;;;;;;2.00;0.35;;;8.30;59.40;;;;;;5035051;28;20030;-77
2021/03/20 10:45:40;;;;;;;2.40;0.40;;;8.30;57.70;;;;;;5032102;28;20029;-78
2021/03/20 10:48:11;;;;;;;0.45;0.30;;;8.20;56.20;;;;;;5098842;22;20073;-77
2021/03/20 10:50:41;;;;;;;1.00;0.30;;;8.80;57.60;;;;;;5052508;28;20068;-78
2021/03/20 10:53:16;;;;;;;2.17;0.55;;;8.20;58.40;;;;;;5036941;28;20033;-77
2021/03/20 10:55:44;;;;;;;0.95;0.20;;;8.40;58.40;;;;;;5037116;28;20030;-76
2021/03/20 10:58:16;;;;;;;2.25;1.00;;;8.50;57.70;;;;;;5038531;28;20029;-79
2021/03/20 11:00:48;;;;;;;2.17;0.22;;;8.60;57.30;;;;;;5037644;28;20109;-77
2021/03/20 11:03:13;;;;;;;1.13;0.28;;;8.60;55.30;;;;;;5036887;28;20382;-78
2021/03/20 11:05:41;;;;;;;1.00;0.10;;;8.50;55.80;;;;;;5036955;28;20030;-77
2021/03/20 11:08:19;;;;;;;3.38;0.20;;;8.40;55.90;;;;;;5071643;23;20025;-76
2021/03/20 11:10:48;;;;;;;2.70;0.22;;;8.50;55.90;;;;;;5019669;28;20127;-78
2021/03/20 11:13:17;;;;;;;1.10;0.13;;;8.50;56.40;;;;;;5065885;22;20046;-78
2021/03/20 11:15:46;;;;;;;2.80;0.22;;;8.60;56.80;;;;;;5033013;23;20061;-75
2021/03/20 11:18:19;;;;;;;0.95;0.20;;;8.50;57.70;;;;;;5021033;28;20030;-79
2021/03/20 11:20:46;;;;;;;0.98;0.15;;;8.80;55.40;;;;;;5038558;28;20029;-80
2021/03/20 11:23:37;;;;;;;1.48;0.75;;;8.90;56.90;;;;;;5038126;28;20022;-80
2021/03/20 11:26:23;;;;;;;1.50;0.98;;;9.10;58.50;;;;;;5038677;28;20017;-76
2021/03/20 11:28:51;;;;;;;2.53;0.40;;;9.10;58.80;;;;;;5021523;28;20036;-79
2021/03/20 11:31:21;;;;;;;3.58;0.93;;;9.30;59.50;;;;;;5023358;28;20018;-79
2021/03/20 11:33:48;;;;;;;1.33;0.35;;;9.40;56.90;;;;;;5020891;28;20462;-78
2021/03/20 11:36:24;;;;;;;2.78;0.73;;;9.80;55.00;;;;;;5037396;23;20041;-79
2021/03/20 11:38:50;;;;;;;3.63;0.98;;;9.90;57.00;;;;;;5017557;28;20456;-77
2021/03/20 11:41:21;;;;;;;2.45;0.68;;;10.00;57.30;;;;;;5020564;28;20379;-77
2021/03/20 11:43:56;;;;;;;2.33;0.80;;;10.20;55.80;;;;;;5018148;28;20022;-79
2021/03/20 11:46:27;;;;;;;0.93;0.60;;;10.30;54.10;;;;;;5015791;28;20018;-79
2021/03/20 11:48:57;;;;;;;2.03;0.70;;;10.00;54.30;;;;;;5007028;28;20054;-80
2021/03/20 11:51:30;;;;;;;2.58;0.43;;;10.10;57.50;;;;;;5026396;23;20038;-76
2021/03/20 11:53:59;;;;;;;1.75;0.52;;;10.30;56.60;;;;;;5007788;28;20034;-81
2021/03/20 11:56:32;;;;;;;1.90;1.48;;;10.50;53.50;;;;;;5005294;28;20030;-75
2021/03/20 11:59:04;;;;;;;2.65;1.80;;;10.40;55.10;;;;;;5015462;28;20432;-77
2021/03/20 12:01:32;;;;;;;3.47;1.25;;;10.30;57.20;;;;;;5014308;28;20079;-76
2021/03/20 12:04:08;;;;;;;2.55;1.40;;;10.50;56.90;;;;;;5002045;28;20030;-75
2021/03/20 12:06:34;;;;;;;4.32;1.42;;;10.60;59.40;;;;;;5040998;23;20047;-76
2021/03/20 12:09:23;;;;;;;1.58;0.70;;;10.70;57.40;;;;;;5024220;28;20092;-76
2021/03/20 12:11:55;;;;;;;3.00;1.15;;;10.80;58.50;;;;;;5024327;28;20088;-74
2021/03/20 12:14:39;;;;;;;4.55;1.35;;;11.10;59.50;;;;;;5023532;28;20076;-75
2021/03/20 12:17:22;;;;;;;3.22;1.40;;;11.30;59.40;;;;;;5030745;28;20414;-74
2021/03/20 12:20:20;;;;;;;3.25;1.40;;;11.60;57.40;;;;;;5027944;28;20030;-75
2021/03/20 12:22:49;;;;;;;1.98;1.35;;;11.80;56.70;;;;;;5028560;28;20022;-74
2021/03/20 12:25:22;;;;;;;3.53;2.03;;;11.90;56.90;;;;;;5032649;28;20037;-74
2021/03/20 12:27:49;;;;;;;3.55;1.67;;;11.70;55.40;;;;;;5034660;28;20032;-75
2021/03/20 12:30:31;;;;;;;2.20;1.40;;;11.40;56.70;;;;;;5018739;28;20041;-76
2021/03/20 12:33:16;;;;;;;3.55;1.92;;;11.60;59.50;;;;;;5012396;28;20022;-74
2021/03/20 12:35:45;;;;;;;3.97;1.50;;;12.00;57.20;;;;;;5014744;28;20033;-74
2021/03/20 12:38:20;;;;;;;4.85;1.75;;;12.30;55.90;;;;;;5014592;28;20022;-73
2021/03/20 12:40:53;;;;;;;3.03;1.75;;;12.50;55.90;;;;;;5014569;28;20050;-74
2021/03/20 12:43:22;;;;;;;7.65;2.10;;;12.60;55.10;;;;;;5015045;28;20029;-74
2021/03/20 12:45:47;;;;;;;5.00;2.78;;;12.50;55.30;;;;;;5013196;28;20034;-74
2021/03/20 12:48:14;;;;;;;3.80;2.38;;;12.30;56.70;;;;;;5014656;28;20482;-73
2021/03/20 12:50:40;;;;;;;5.18;2.17;;;12.20;57.00;;;;;;5014686;28;20018;-74
2021/03/20 12:53:06;;;;;;;3.72;2.17;;;12.00;57.90;;;;;;5026346;28;20390;-73
2021/03/20 12:55:33;;;;;;;2.92;1.88;;;11.90;59.20;;;;;;5032507;28;20080;-74
2021/03/20 12:58:02;;;;;;;4.55;1.60;;;11.70;59.80;;;;;;5033974;28;20033;-74
2021/03/20 13:00:28;;;;;;;5.72;2.42;;;11.40;60.80;;;;;;5033911;28;20022;-74
2021/03/20 13:02:53;;;;;;;1.65;1.20;;;11.30;60.70;;;;;;5032143;28;20091;-74
2021/03/20 13:05:32;;;;;;;5.30;1.83;;;11.10;60.50;;;;;;5032317;28;20037;-74
2021/03/20 13:07:58;;;;;;;4.32;1.83;;;10.90;61.10;;;;;;5033915;28;20104;-74
2021/03/20 13:10:25;;;;;;;4.80;1.95;;;11.00;62.10;;;;;;5034376;28;20109;-73
2021/03/20 13:12:50;;;;;;;2.60;1.58;;;11.10;62.60;;;;;;5034283;28;20017;-74
2021/03/20 13:15:17;;;;;;;2.10;1.23;;;11.10;62.00;;;;;;5034411;28;20537;-75
2021/03/20 13:17:42;;;;;;;3.13;1.02;;;11.20;62.50;;;;;;5032816;28;20037;-74
2021/03/20 13:20:09;;;;;;;4.22;1.13;;;11.20;61.30;;;;;;5033848;28;20486;-73
2021/03/20 13:22:35;;;;;;;3.75;1.88;;;11.10;60.30;;;;;;5033643;28;20022;-76
2021/03/20 13:25:01;;;;;;;2.33;1.15;;;11.00;63.20;;;;;;5046230;23;20094;-73
2021/03/20 13:27:27;;;;;;;4.15;1.38;;;11.00;64.20;;;;;;5032469;28;20018;-75
2021/03/20 13:29:53;;;;;;;4.30;1.70;;;11.00;63.30;;;;;;5033709;28;20035;-74
2021/03/20 13:32:18;;;;;;;6.00;1.63;;;10.80;63.30;;;;;;5033825;28;20097;-73
2021/03/20 13:34:44;;;;;;;7.03;1.92;;;10.80;66.50;;;;;;5034208;28;20053;-74
2021/03/20 13:37:10;;;;;;;9.55;2.70;;;10.90;65.50;;;;;;5032045;28;20411;-74
2021/03/20 13:39:35;;;;;;;3.03;1.75;;;10.80;65.00;;;;;;5033746;28;20490;-75